Vernon River, Canada
Current Conditions -  °F | °C
As of 9:00 AM on Saturday 25 Oct 2014 (Local Time) from CYYG Reporting Station
Drizzle Drizzle  
Wind Chill: 50°   Ceiling: 500
Heat Index: 50°   Visibility: 2.5mi
Dew Point: 48°   Wind: 9mph
Humidity: 94%   Direction: 360°N
Pressure: 29.45"   Gusts: 18mph
Location:  46.2°N, 62.83°W
Report Text: CYYG 251200Z 36008G16KT 2 1/2SM -DZ BR OVC005 10/09 A2945 RMK SF8 SLP975
Loading
Personal Weather Stations






























Interactive Weather Map
Tropical Storm Tracking
New forecast layout! Learn more

10-Day Weather Forecast

Advertisements
Track Severe Weather on mobile